Time;durP1;ratioP1;P1;durP2;ratioP2;P2;SDS_P1;SDS_P2;PMS_P1;PMS_P2;Temp;Humidity;BMP_temperature;BMP_pressure;BME280_temperature;BME280_humidity;BME280_pressure;Samples;Min_cycle;Max_cycle;Signal;HPM_P1;HPM_P2
2022/01/10 00:01:28;;;;;;;138.07;60.90;;;1.00;99.90;;;;;;10251083;28;20027;-88
2022/01/10 00:06:28;;;;;;;133.90;60.80;;;0.90;99.90;;;;;;10275589;28;20041;-89
2022/01/10 00:11:30;;;;;;;130.70;57.57;;;0.90;99.90;;;;;;10260056;28;20034;-87
2022/01/10 00:16:30;;;;;;;149.57;64.37;;;0.90;99.90;;;;;;10245025;29;20035;-89
2022/01/10 00:21:31;;;;;;;132.47;59.47;;;1.00;99.90;;;;;;10291107;28;20043;-85
2022/01/10 00:26:32;;;;;;;150.57;66.60;;;1.00;99.90;;;;;;10290449;28;20045;-87
2022/01/10 00:31:33;;;;;;;206.50;90.67;;;1.00;99.90;;;;;;10263483;28;20101;-87
2022/01/10 00:36:34;;;;;;;225.57;96.03;;;0.90;99.90;;;;;;10273919;28;20034;-89
2022/01/10 00:41:34;;;;;;;170.37;76.90;;;1.00;99.90;;;;;;10272368;28;20039;-87
2022/01/10 00:46:35;;;;;;;148.33;61.93;;;0.90;99.90;;;;;;10269084;28;20042;-87
2022/01/10 00:51:36;;;;;;;153.80;63.47;;;0.80;99.90;;;;;;10267849;28;20033;-87
2022/01/10 00:56:37;;;;;;;137.70;59.63;;;0.80;99.90;;;;;;10243148;29;20419;-87
2022/01/10 01:01:38;;;;;;;156.67;67.23;;;0.80;99.90;;;;;;10251169;28;20035;-86
2022/01/10 01:06:38;;;;;;;124.50;56.80;;;0.80;99.90;;;;;;10272517;28;20063;-88
2022/01/10 01:16:56;;;;;;;153.57;67.70;;;0.80;99.90;;;;;;10265720;28;20434;-85
2022/01/10 01:27:16;;;;;;;148.00;63.97;;;0.90;99.90;;;;;;10251577;28;20043;-87
2022/01/10 01:32:17;;;;;;;153.43;66.23;;;0.90;99.90;;;;;;10257211;28;20403;-87
2022/01/10 01:37:17;;;;;;;155.83;69.87;;;0.90;99.90;;;;;;10270652;28;20034;-89
2022/01/10 01:42:33;;;;;;;171.10;75.40;;;0.90;99.90;;;;;;10255920;28;20038;-86
2022/01/10 01:47:34;;;;;;;177.37;77.33;;;0.90;99.90;;;;;;10238997;29;20046;-88
2022/01/10 01:52:35;;;;;;;202.83;89.90;;;0.90;99.90;;;;;;10270137;28;20042;-86
2022/01/10 01:57:37;;;;;;;176.50;78.03;;;0.80;99.90;;;;;;10231724;29;20063;-85
2022/01/10 02:02:46;;;;;;;164.33;74.83;;;0.80;99.90;;;;;;10483552;28;20406;-86
2022/01/10 02:07:46;;;;;;;152.40;66.37;;;0.80;99.90;;;;;;10448391;28;20029;-87
2022/01/10 02:12:47;;;;;;;137.13;61.00;;;0.80;99.90;;;;;;10449323;28;20469;-88
2022/01/10 02:17:49;;;;;;;132.63;61.37;;;0.80;99.90;;;;;;10444137;28;20037;-86
2022/01/10 02:22:50;;;;;;;159.53;67.70;;;0.80;99.90;;;;;;10415558;28;20030;-86
2022/01/10 02:27:51;;;;;;;138.33;58.30;;;0.80;99.90;;;;;;10455603;28;20401;-86
2022/01/10 02:32:56;;;;;;;136.33;59.37;;;0.80;99.90;;;;;;10424070;28;20037;-86
2022/01/10 02:37:57;;;;;;;121.80;54.70;;;0.80;99.90;;;;;;10425589;28;20075;-86
2022/01/10 02:42:58;;;;;;;121.23;54.03;;;0.70;99.90;;;;;;10442733;28;20037;-88
2022/01/10 02:47:59;;;;;;;128.33;57.60;;;0.60;99.90;;;;;;10447670;28;20033;-86
2022/01/10 02:52:59;;;;;;;146.60;63.10;;;0.60;99.90;;;;;;10461684;28;20030;-86
2022/01/10 02:58:00;;;;;;;160.27;68.17;;;0.50;99.90;;;;;;10431510;28;20037;-86
2022/01/10 03:03:06;;;;;;;184.13;81.07;;;0.50;99.90;;;;;;10429204;28;20091;-86
2022/01/10 03:08:07;;;;;;;182.23;79.70;;;0.30;99.90;;;;;;10421398;28;20574;-85
2022/01/10 03:13:07;;;;;;;179.20;78.40;;;0.00;99.90;;;;;;10432831;28;20075;-86
2022/01/10 03:18:08;;;;;;;155.27;68.93;;;-0.20;99.90;;;;;;10405009;28;20052;-86
2022/01/10 03:23:09;;;;;;;138.97;60.00;;;-0.40;99.90;;;;;;10406845;28;20045;-87
2022/01/10 03:28:13;;;;;;;142.27;58.80;;;-0.50;99.90;;;;;;10430545;28;20636;-87
2022/01/10 03:33:14;;;;;;;122.90;52.83;;;-0.70;99.90;;;;;;10434152;28;20018;-85
2022/01/10 03:38:15;;;;;;;129.40;54.10;;;-0.80;99.90;;;;;;10372531;28;20374;-87
2022/01/10 03:43:16;;;;;;;133.73;58.03;;;-0.90;99.90;;;;;;10408781;28;20037;-86
2022/01/10 03:48:17;;;;;;;140.33;61.87;;;-1.00;99.90;;;;;;10404806;28;20036;-86
2022/01/10 03:53:17;;;;;;;129.77;55.90;;;-1.10;99.90;;;;;;10427363;28;20034;-86
2022/01/10 03:58:18;;;;;;;139.10;56.03;;;-1.10;99.90;;;;;;10388973;28;20137;-87
2022/01/10 04:03:19;;;;;;;135.73;59.27;;;-1.20;99.90;;;;;;10405917;28;20128;-86
2022/01/10 04:08:20;;;;;;;143.60;61.00;;;-1.30;99.90;;;;;;10409773;28;20029;-86
2022/01/10 04:13:21;;;;;;;139.00;58.53;;;-1.30;99.90;;;;;;10400134;28;20087;-87
2022/01/10 04:18:23;;;;;;;131.27;57.63;;;-1.40;99.90;;;;;;10413372;28;20098;-88
2022/01/10 04:23:23;;;;;;;131.87;59.47;;;-1.50;99.90;;;;;;10425889;28;20025;-86
2022/01/10 04:28:25;;;;;;;129.13;54.60;;;-1.50;99.90;;;;;;10423570;28;20033;-89
2022/01/10 04:33:29;;;;;;;131.73;55.17;;;-1.50;99.90;;;;;;10413159;28;20087;-89
2022/01/10 04:38:30;;;;;;;138.07;57.80;;;-1.60;99.90;;;;;;10400985;28;20033;-90
2022/01/10 04:43:31;;;;;;;155.27;65.93;;;-1.60;99.90;;;;;;10421650;28;20033;-90
2022/01/10 04:48:51;;;;;;;151.37;61.80;;;-1.70;99.90;;;;;;10403466;28;20037;-94
2022/01/10 04:53:53;;;;;;;133.23;59.90;;;-1.80;99.90;;;;;;10450262;28;20063;-89
2022/01/10 04:58:53;;;;;;;131.00;59.73;;;-1.90;99.90;;;;;;10391009;28;20042;-89
2022/01/10 05:03:57;;;;;;;122.00;52.23;;;-2.00;99.90;;;;;;10392327;28;20030;-89
2022/01/10 05:08:58;;;;;;;116.60;48.03;;;-2.10;99.90;;;;;;10391993;28;20038;-90
2022/01/10 05:13:59;;;;;;;111.73;45.90;;;-2.10;99.90;;;;;;10402188;28;20045;-87
2022/01/10 05:18:59;;;;;;;91.87;38.73;;;-2.10;99.90;;;;;;10399287;28;20043;-88
2022/01/10 05:24:00;;;;;;;91.70;39.53;;;-1.90;99.90;;;;;;10411212;28;20076;-88
2022/01/10 05:29:02;;;;;;;97.13;41.77;;;-1.80;99.90;;;;;;10402718;28;20032;-87
2022/01/10 05:34:03;;;;;;;97.07;40.70;;;-1.80;99.90;;;;;;10392603;28;20026;-87
2022/01/10 05:39:07;;;;;;;102.00;42.00;;;-1.90;99.90;;;;;;10387603;28;20473;-87
2022/01/10 05:44:08;;;;;;;113.73;45.53;;;-2.00;99.90;;;;;;10390740;28;20018;-88
2022/01/10 05:49:12;;;;;;;121.60;49.87;;;-2.20;99.90;;;;;;10381183;28;20354;-87
2022/01/10 05:54:13;;;;;;;113.23;49.23;;;-2.40;99.90;;;;;;10398169;28;20033;-87
2022/01/10 05:59:13;;;;;;;120.07;48.97;;;-2.50;99.90;;;;;;10376448;28;20379;-87
2022/01/10 06:04:14;;;;;;;114.07;46.73;;;-2.60;99.90;;;;;;10400675;28;20409;-86
2022/01/10 06:09:15;;;;;;;119.97;49.50;;;-2.70;99.90;;;;;;10406944;28;20075;-88
2022/01/10 06:14:16;;;;;;;107.77;46.77;;;-2.80;99.90;;;;;;10407137;28;20111;-87
2022/01/10 06:19:16;;;;;;;124.43;50.57;;;-2.80;99.90;;;;;;10407761;28;20033;-89
2022/01/10 06:24:17;;;;;;;119.73;51.23;;;-2.80;99.90;;;;;;10408166;28;20034;-87
2022/01/10 06:29:18;;;;;;;140.70;56.97;;;-2.90;99.90;;;;;;10406490;28;20026;-88
2022/01/10 06:34:18;;;;;;;139.20;58.93;;;-2.90;99.90;;;;;;10380333;28;20436;-90
2022/01/10 06:39:19;;;;;;;136.97;56.17;;;-3.00;99.90;;;;;;10398794;28;20043;-87
2022/01/10 06:44:20;;;;;;;140.90;60.20;;;-3.10;99.90;;;;;;10391480;28;20026;-88
2022/01/10 06:49:21;;;;;;;119.20;53.30;;;-3.10;99.90;;;;;;10399942;28;20397;-88
2022/01/10 06:54:23;;;;;;;134.67;55.57;;;-3.10;99.90;;;;;;10394219;28;20140;-90
2022/01/10 06:59:25;;;;;;;133.87;59.17;;;-3.20;99.90;;;;;;10395439;28;20049;-89
2022/01/10 07:04:27;;;;;;;132.13;55.87;;;-3.30;99.90;;;;;;10399274;28;20021;-89
2022/01/10 07:09:28;;;;;;;126.57;53.90;;;-3.30;99.90;;;;;;10392896;28;20485;-89
2022/01/10 07:14:31;;;;;;;126.80;53.97;;;-3.30;99.90;;;;;;10395566;28;20026;-90
2022/01/10 07:19:32;;;;;;;122.17;53.07;;;-3.30;99.90;;;;;;10417287;28;20832;-89
2022/01/10 07:24:33;;;;;;;130.90;56.30;;;-3.20;99.90;;;;;;10432180;28;20013;-88
2022/01/10 07:29:33;;;;;;;127.93;56.60;;;-3.20;99.90;;;;;;10389623;28;20041;-90
2022/01/10 07:34:34;;;;;;;133.97;59.13;;;-3.10;99.90;;;;;;10370133;28;20022;-89
2022/01/10 07:39:35;;;;;;;143.93;57.90;;;-3.10;99.90;;;;;;10370389;28;20086;-89
2022/01/10 07:44:36;;;;;;;150.13;62.53;;;-3.00;99.90;;;;;;10370680;28;20112;-91
2022/01/10 07:49:37;;;;;;;133.57;57.70;;;-2.90;99.90;;;;;;10367659;28;20026;-89
2022/01/10 07:54:38;;;;;;;113.47;48.80;;;-2.80;99.90;;;;;;10404957;28;20029;-89
2022/01/10 07:59:40;;;;;;;109.87;50.53;;;-2.60;99.90;;;;;;10411683;28;20061;-89
2022/01/10 08:04:41;;;;;;;95.63;42.63;;;-2.30;99.90;;;;;;10411541;28;20120;-90
2022/01/10 08:09:41;;;;;;;91.03;41.73;;;-2.10;99.90;;;;;;10411431;28;20493;-88
2022/01/10 08:14:42;;;;;;;90.70;40.83;;;-1.80;99.90;;;;;;10411914;28;20022;-88
2022/01/10 08:19:43;;;;;;;80.47;36.93;;;-1.60;99.90;;;;;;10411360;28;20037;-88
2022/01/10 08:24:44;;;;;;;80.93;37.33;;;-1.50;99.90;;;;;;10410347;28;20060;-86
2022/01/10 08:29:44;;;;;;;83.53;38.37;;;-1.30;99.90;;;;;;10411206;28;20033;-86
2022/01/10 08:34:46;;;;;;;80.37;35.20;;;-1.00;99.90;;;;;;10410549;28;20064;-87
2022/01/10 08:39:49;;;;;;;85.03;37.03;;;-0.70;99.90;;;;;;10410646;28;20068;-85
2022/01/10 08:44:50;;;;;;;73.27;32.40;;;-0.50;99.90;;;;;;10409447;28;20034;-86
2022/01/10 08:49:51;;;;;;;92.10;38.00;;;-0.30;99.90;;;;;;10409389;28;20097;-85
2022/01/10 08:54:52;;;;;;;85.43;38.17;;;0.00;99.90;;;;;;10410625;28;20038;-86
2022/01/10 08:59:53;;;;;;;88.37;38.90;;;0.10;99.90;;;;;;10408524;28;20057;-85
2022/01/10 09:04:53;;;;;;;98.83;42.57;;;0.40;99.90;;;;;;10410360;28;20523;-86
2022/01/10 09:09:54;;;;;;;89.93;37.90;;;0.60;99.90;;;;;;10408899;28;20026;-85
2022/01/10 09:14:55;;;;;;;75.07;36.13;;;0.50;99.90;;;;;;10408392;28;20084;-87
2022/01/10 09:19:56;;;;;;;69.67;34.30;;;0.50;99.90;;;;;;10409719;28;20036;-84
2022/01/10 09:24:56;;;;;;;81.80;37.23;;;0.40;99.90;;;;;;10409663;28;20112;-85
2022/01/10 09:29:57;;;;;;;96.83;45.23;;;0.30;99.90;;;;;;10409106;28;20025;-86
2022/01/10 09:34:58;;;;;;;141.20;65.57;;;0.40;99.90;;;;;;10409113;28;20030;-84
2022/01/10 09:39:59;;;;;;;248.43;110.73;;;0.40;99.90;;;;;;10408614;28;20120;-85
2022/01/10 09:45:03;;;;;;;98.83;43.47;;;0.10;99.90;;;;;;10408815;28;20036;-85
2022/01/10 09:50:07;;;;;;;177.80;69.50;;;0.00;99.90;;;;;;10407353;28;20040;-87
2022/01/10 09:55:08;;;;;;;109.87;46.30;;;0.00;99.90;;;;;;10408903;28;20377;-85
2022/01/10 10:00:10;;;;;;;274.37;105.67;;;-0.10;99.90;;;;;;10407857;28;20058;-86
2022/01/10 10:05:12;;;;;;;751.93;336.03;;;-0.60;99.90;;;;;;10406779;28;20025;-86
2022/01/10 10:10:13;;;;;;;625.43;283.20;;;-0.60;99.90;;;;;;10407164;28;20021;-85
2022/01/10 10:15:17;;;;;;;261.77;101.37;;;-0.80;99.90;;;;;;10407850;28;20116;-86
2022/01/10 10:20:21;;;;;;;257.20;97.83;;;-1.00;99.90;;;;;;10408906;28;20084;-86
2022/01/10 10:25:21;;;;;;;629.90;265.50;;;-1.30;99.90;;;;;;10416707;28;20029;-86
2022/01/10 10:30:28;;;;;;;123.03;45.30;;;-1.50;99.90;;;;;;10414519;28;20103;-87
2022/01/10 10:35:29;;;;;;;213.80;67.13;;;-1.60;99.90;;;;;;10415406;28;20564;-86
2022/01/10 10:40:30;;;;;;;226.73;70.03;;;-1.50;99.90;;;;;;10415746;28;20045;-86
2022/01/10 10:45:30;;;;;;;177.10;67.37;;;-1.40;99.90;;;;;;10413073;28;20026;-87
2022/01/10 10:50:34;;;;;;;63.63;29.50;;;-1.60;99.90;;;;;;10416264;28;20479;-86
2022/01/10 10:55:37;;;;;;;98.83;43.77;;;-1.70;99.90;;;;;;10415073;28;20075;-86
2022/01/10 11:00:39;;;;;;;125.40;36.23;;;-1.80;99.90;;;;;;10395341;28;20057;-88
2022/01/10 11:05:43;;;;;;;112.00;35.27;;;-1.80;99.90;;;;;;10373675;28;20030;-86
2022/01/10 11:10:45;;;;;;;74.37;23.67;;;-1.60;99.90;;;;;;10373354;28;20569;-87
2022/01/10 11:15:46;;;;;;;53.70;20.03;;;-1.50;99.90;;;;;;10372532;28;20037;-86
2022/01/10 11:20:50;;;;;;;62.80;25.77;;;-1.50;99.90;;;;;;10373887;28;20030;-86
2022/01/10 11:25:51;;;;;;;61.13;24.27;;;-1.50;99.90;;;;;;10372936;28;20026;-87
2022/01/10 11:30:53;;;;;;;67.53;24.87;;;-1.60;99.90;;;;;;10371622;28;20037;-86
2022/01/10 11:35:57;;;;;;;64.53;24.73;;;-1.60;99.90;;;;;;10371190;28;20038;-86
2022/01/10 11:41:07;;;;;;;65.00;25.43;;;-1.60;99.90;;;;;;10371502;28;20046;-87
2022/01/10 11:46:38;;;;;;;93.60;32.50;;;-1.50;99.90;;;;;;10370689;28;20034;-87
2022/01/10 11:51:46;;;;;;;104.87;32.03;;;-1.40;99.90;;;;;;10370809;28;20173;-86
2022/01/10 11:56:52;;;;;;;59.40;23.03;;;-1.30;99.90;;;;;;10370732;28;20034;-85
2022/01/10 12:02:03;;;;;;;;;;;-1.20;99.90;;;;;;10372339;28;20104;-88
2022/01/10 12:07:06;;;;;;;49.27;19.17;;;-1.40;99.90;;;;;;10371550;28;19910;-87
2022/01/10 12:12:09;;;;;;;47.83;19.60;;;-1.40;99.90;;;;;;10371814;28;20113;-87
2022/01/10 12:17:12;;;;;;;44.83;19.03;;;-1.40;99.90;;;;;;10370972;28;20030;-86
2022/01/10 12:22:12;;;;;;;67.67;24.23;;;-1.40;99.90;;;;;;10369482;28;20060;-85
2022/01/10 12:27:14;;;;;;;103.80;33.30;;;-1.30;99.90;;;;;;10369179;28;20026;-85
2022/01/10 12:32:15;;;;;;;127.73;49.70;;;-1.10;99.90;;;;;;10369102;28;20022;-87
2022/01/10 12:37:16;;;;;;;112.87;39.33;;;-1.00;99.90;;;;;;10370529;28;20401;-86
2022/01/10 12:42:17;;;;;;;185.20;62.17;;;-1.00;99.90;;;;;;10368306;28;20037;-88
2022/01/10 12:47:18;;;;;;;442.37;160.07;;;-1.00;99.90;;;;;;10369845;28;20026;-85
2022/01/10 12:52:20;;;;;;;258.90;89.97;;;-0.90;99.90;;;;;;10369716;28;20022;-85
2022/01/10 12:57:22;;;;;;;873.20;335.77;;;-0.90;99.90;;;;;;10368527;28;20106;-87
2022/01/10 13:02:25;;;;;;;524.97;179.00;;;-0.80;99.90;;;;;;10369069;28;20058;-84
2022/01/10 13:07:28;;;;;;;651.53;227.87;;;-0.80;99.90;;;;;;10369009;28;20030;-86
2022/01/10 13:12:29;;;;;;;351.07;114.40;;;-0.90;99.90;;;;;;10368907;28;20109;-87
2022/01/10 13:17:30;;;;;;;166.77;51.53;;;-0.90;99.90;;;;;;10367827;28;20022;-87
2022/01/10 13:22:33;;;;;;;429.10;144.43;;;-0.80;99.90;;;;;;10369178;28;20038;-86
2022/01/10 13:27:36;;;;;;;128.83;47.47;;;-0.80;99.90;;;;;;10369276;28;20540;-88
2022/01/10 13:32:38;;;;;;;503.43;215.67;;;-0.90;99.90;;;;;;10377192;28;20037;-85
2022/01/10 13:37:49;;;;;;;146.20;57.70;;;-0.90;99.90;;;;;;10408230;28;20026;-84
2022/01/10 13:42:53;;;;;;;98.77;40.37;;;-0.90;99.90;;;;;;10398426;28;20029;-87
2022/01/10 13:47:57;;;;;;;68.80;28.03;;;-0.90;99.90;;;;;;10407862;28;20104;-87
2022/01/10 13:52:59;;;;;;;203.40;82.53;;;-0.90;99.90;;;;;;10371407;28;20084;-88
2022/01/10 13:58:00;;;;;;;70.47;31.33;;;-0.80;99.90;;;;;;10366517;28;20045;-88
2022/01/10 14:03:08;;;;;;;43.67;20.57;;;-0.80;99.90;;;;;;10402513;28;20049;-86
2022/01/10 14:08:13;;;;;;;102.90;56.63;;;-0.70;99.90;;;;;;10407047;28;20037;-84
2022/01/10 14:13:14;;;;;;;71.70;36.63;;;-0.80;99.90;;;;;;10380005;28;20038;-86
2022/01/10 14:18:14;;;;;;;61.47;31.60;;;-0.90;99.90;;;;;;10378720;28;20018;-86
2022/01/10 14:23:17;;;;;;;44.87;20.47;;;-0.90;99.90;;;;;;10387784;28;20488;-87
2022/01/10 14:28:18;;;;;;;54.50;22.77;;;-1.00;99.90;;;;;;10400521;28;20025;-87
2022/01/10 14:33:23;;;;;;;52.70;21.60;;;-1.10;99.90;;;;;;10397512;28;20033;-88
2022/01/10 14:38:28;;;;;;;185.63;74.67;;;-1.10;99.90;;;;;;10366658;28;20043;-89
2022/01/10 14:43:29;;;;;;;171.65;65.55;;;-1.00;99.90;;;;;;10367735;28;20393;-90
2022/01/10 14:48:30;;;;;;;53.57;23.50;;;-1.10;99.90;;;;;;10395803;28;20069;-87
2022/01/10 14:53:31;;;;;;;87.90;41.47;;;-1.10;99.90;;;;;;10365117;28;20064;-87
2022/01/10 14:58:32;;;;;;;68.87;27.67;;;-1.10;99.90;;;;;;10364983;28;20050;-88
2022/01/10 15:03:33;;;;;;;64.03;24.43;;;-1.10;99.90;;;;;;10386097;28;20021;-90
2022/01/10 15:08:34;;;;;;;69.10;26.33;;;-1.10;99.90;;;;;;10386717;28;20378;-88
2022/01/10 15:13:34;;;;;;;63.60;26.60;;;-1.10;99.90;;;;;;10395790;28;20046;-88
2022/01/10 15:18:35;;;;;;;63.87;24.60;;;-1.20;99.90;;;;;;10393058;28;20172;-88
2022/01/10 15:23:49;;;;;;;67.60;25.73;;;-1.20;99.90;;;;;;10378666;28;20034;-91
2022/01/10 15:28:49;;;;;;;55.97;23.07;;;-1.20;99.90;;;;;;10409494;28;20033;-88
2022/01/10 15:33:50;;;;;;;55.53;20.93;;;-1.20;99.90;;;;;;10405657;28;20056;-89
2022/01/10 15:38:51;;;;;;;56.80;23.00;;;-1.20;99.90;;;;;;10402370;28;20030;-88
2022/01/10 15:43:56;;;;;;;66.60;26.03;;;-1.20;99.90;;;;;;10371549;28;20726;-88
2022/01/10 15:48:56;;;;;;;59.90;23.63;;;-1.10;99.90;;;;;;10384782;28;20029;-90
2022/01/10 15:53:57;;;;;;;68.37;25.33;;;-1.10;99.90;;;;;;10374393;28;20030;-90
2022/01/10 15:58:58;;;;;;;58.13;22.97;;;-1.10;99.90;;;;;;10384148;28;20053;-90
2022/01/10 16:03:59;;;;;;;59.83;25.93;;;-1.10;99.90;;;;;;10395387;28;20057;-88
2022/01/10 16:09:00;;;;;;;57.63;23.50;;;-1.10;99.90;;;;;;10370029;28;20028;-90
2022/01/10 16:14:00;;;;;;;59.57;23.10;;;-1.20;99.90;;;;;;10397416;28;20033;-88
2022/01/10 16:19:01;;;;;;;59.87;23.37;;;-1.10;99.90;;;;;;10408318;28;20517;-89
2022/01/10 16:24:02;;;;;;;52.43;22.00;;;-1.10;99.90;;;;;;10381379;28;20033;-88
2022/01/10 16:29:03;;;;;;;47.57;19.83;;;-1.20;99.90;;;;;;10413436;28;20132;-89
2022/01/10 16:34:04;;;;;;;51.83;23.03;;;-1.20;99.90;;;;;;10402040;28;20038;-89
2022/01/10 16:39:06;;;;;;;61.67;24.00;;;-1.20;99.90;;;;;;10399880;28;20042;-88
2022/01/10 16:44:07;;;;;;;61.67;26.30;;;-1.30;99.90;;;;;;10388706;28;20412;-88
2022/01/10 16:49:08;;;;;;;62.57;25.77;;;-1.20;99.90;;;;;;10400456;28;20140;-90
2022/01/10 16:54:52;;;;;;;70.73;28.40;;;-1.20;99.90;;;;;;10376053;28;20033;-89
2022/01/10 17:00:28;;;;;;;72.80;28.17;;;-1.30;99.90;;;;;;10382679;28;20045;-91
2022/01/10 17:05:30;;;;;;;79.97;28.87;;;-1.30;99.90;;;;;;10374932;28;20056;-89
2022/01/10 17:10:43;;;;;;;70.90;26.43;;;-1.30;99.90;;;;;;10394993;28;20440;-93
2022/01/10 17:16:09;;;;;;;63.33;24.10;;;-1.30;99.90;;;;;;10383319;28;20026;-91
2022/01/10 17:33:03;;;;;;;66.07;25.87;;;-1.20;99.90;;;;;;10382471;28;20267;-88
2022/01/10 17:45:11;;;;;;;55.83;24.23;;;-1.20;99.90;;;;;;10380722;28;20045;-90
2022/01/10 17:50:15;;;;;;;66.13;25.83;;;-1.20;99.90;;;;;;10458304;28;20495;-88
2022/01/10 18:01:17;;;;;;;233.50;78.83;;;-1.10;99.90;;;;;;10472876;28;20057;-88
2022/01/10 18:06:18;;;;;;;654.53;246.87;;;-1.10;99.90;;;;;;10436255;28;20055;-87
2022/01/10 18:11:21;;;;;;;844.20;303.80;;;-1.20;99.90;;;;;;10450232;28;20396;-87
2022/01/10 18:22:20;;;;;;;381.80;97.30;;;-1.10;99.90;;;;;;10475119;28;20041;-87
2022/01/10 18:27:21;;;;;;;624.40;206.43;;;-1.10;99.90;;;;;;10471340;28;20387;-88
2022/01/10 18:32:21;;;;;;;428.90;155.03;;;-1.10;99.90;;;;;;10451111;28;20029;-89
2022/01/10 18:37:22;;;;;;;143.53;52.33;;;-1.00;99.90;;;;;;10469301;28;20033;-88
2022/01/10 18:42:34;;;;;;;451.00;198.63;;;-1.00;99.90;;;;;;10454528;28;20520;-87
2022/01/10 18:47:36;;;;;;;229.27;92.80;;;-1.10;99.90;;;;;;10475751;28;20028;-85
2022/01/10 18:52:37;;;;;;;306.10;127.10;;;-1.00;99.90;;;;;;10485789;28;20035;-88
2022/01/10 18:57:37;;;;;;;84.03;33.47;;;-1.00;99.90;;;;;;10450759;28;20120;-87
2022/01/10 19:02:38;;;;;;;211.77;115.47;;;-1.00;99.90;;;;;;10471704;28;20500;-85
2022/01/10 19:07:39;;;;;;;90.10;47.70;;;-0.90;99.90;;;;;;10474433;28;20032;-88
2022/01/10 19:12:40;;;;;;;52.33;21.37;;;-1.00;99.90;;;;;;10472976;28;20028;-87
2022/01/10 19:17:40;;;;;;;67.90;26.63;;;-1.00;99.90;;;;;;10472036;28;20051;-84
2022/01/10 19:22:42;;;;;;;56.70;23.83;;;-1.00;99.90;;;;;;10466773;28;20070;-86
2022/01/10 19:27:42;;;;;;;56.23;24.07;;;-1.00;99.90;;;;;;10468686;28;20353;-84
2022/01/10 19:32:44;;;;;;;59.37;24.37;;;-1.00;99.90;;;;;;10480131;28;20028;-86
2022/01/10 19:37:46;;;;;;;66.23;25.07;;;-1.00;99.90;;;;;;10474226;28;20029;-89
2022/01/10 19:42:47;;;;;;;76.73;26.93;;;-0.90;99.90;;;;;;10493023;28;20480;-87
2022/01/10 19:47:48;;;;;;;63.23;27.40;;;-1.00;99.90;;;;;;10483948;28;20134;-86
2022/01/10 19:52:49;;;;;;;76.90;31.50;;;-0.90;99.90;;;;;;10466297;28;20017;-85
2022/01/10 19:57:50;;;;;;;74.30;29.20;;;-0.90;99.90;;;;;;10461477;28;20029;-89
2022/01/10 20:02:52;;;;;;;67.80;26.50;;;-0.90;99.90;;;;;;10476203;28;20056;-90
2022/01/10 20:07:53;;;;;;;54.53;23.20;;;-0.80;99.90;;;;;;10439567;28;20031;-90
2022/01/10 20:12:53;;;;;;;54.30;22.90;;;-0.80;99.90;;;;;;10438324;28;20495;-89
2022/01/10 20:17:54;;;;;;;61.20;24.13;;;-0.90;99.90;;;;;;10471350;28;20480;-90
2022/01/10 20:22:55;;;;;;;57.33;24.07;;;-1.00;99.90;;;;;;10469611;28;20037;-88
2022/01/10 20:27:56;;;;;;;52.33;22.47;;;-1.00;99.90;;;;;;10480198;28;20511;-90
2022/01/10 20:32:57;;;;;;;54.60;22.17;;;-1.10;99.90;;;;;;10460762;28;20029;-88
2022/01/10 20:37:57;;;;;;;48.20;20.10;;;-1.10;99.90;;;;;;10454249;28;20032;-90
2022/01/10 20:42:58;;;;;;;51.87;23.80;;;-1.20;99.90;;;;;;10500808;28;20040;-89
2022/01/10 20:47:59;;;;;;;49.07;21.00;;;-1.10;99.90;;;;;;10489791;28;20051;-90
2022/01/10 20:53:00;;;;;;;46.63;19.47;;;-1.20;99.90;;;;;;10470040;28;20082;-88
2022/01/10 20:58:01;;;;;;;52.03;21.63;;;-1.20;99.90;;;;;;10499624;28;20039;-88
2022/01/10 21:03:02;;;;;;;49.87;20.57;;;-1.30;99.90;;;;;;10479015;28;20044;-88
2022/01/10 21:08:02;;;;;;;59.00;23.50;;;-1.30;99.90;;;;;;10501628;28;20127;-89
2022/01/10 21:13:04;;;;;;;60.93;25.23;;;-1.30;99.90;;;;;;10467963;28;20070;-88
2022/01/10 21:18:05;;;;;;;56.67;23.57;;;-1.30;99.90;;;;;;10455662;28;20040;-88
2022/01/10 21:23:06;;;;;;;51.83;20.70;;;-1.30;99.90;;;;;;10480907;28;20048;-90
2022/01/10 21:28:07;;;;;;;40.53;18.23;;;-1.40;99.90;;;;;;10476744;28;20033;-89
2022/01/10 21:33:08;;;;;;;35.80;16.53;;;-1.30;99.90;;;;;;10475010;28;20037;-89
2022/01/10 21:38:10;;;;;;;38.80;16.57;;;-1.40;99.90;;;;;;10462076;28;20052;-88
2022/01/10 21:43:11;;;;;;;41.40;17.33;;;-1.50;99.90;;;;;;10463113;28;20040;-89
2022/01/10 21:48:12;;;;;;;32.43;16.53;;;-1.50;99.90;;;;;;10474835;28;20041;-89
2022/01/10 21:53:12;;;;;;;34.10;15.40;;;-1.50;99.90;;;;;;10480432;28;20078;-88
2022/01/10 21:58:13;;;;;;;43.10;19.07;;;-1.50;99.90;;;;;;10478254;28;20032;-88
2022/01/10 22:03:14;;;;;;;42.90;17.43;;;-1.40;99.90;;;;;;10475719;28;20059;-89
2022/01/10 22:08:15;;;;;;;45.80;17.70;;;-1.40;99.90;;;;;;10465524;28;20033;-88
2022/01/10 22:13:16;;;;;;;39.83;17.03;;;-1.40;99.90;;;;;;10478198;28;20511;-90
2022/01/10 22:18:17;;;;;;;33.17;14.87;;;-1.30;99.90;;;;;;10464964;28;20029;-88
2022/01/10 22:23:18;;;;;;;29.40;15.33;;;-1.40;99.90;;;;;;10496318;28;20040;-89
2022/01/10 22:28:20;;;;;;;29.20;12.93;;;-1.40;99.90;;;;;;10476239;28;20071;-89
2022/01/10 22:33:20;;;;;;;31.80;15.13;;;-1.50;99.90;;;;;;10458699;28;20032;-89
2022/01/10 22:38:26;;;;;;;33.87;15.37;;;-1.50;99.90;;;;;;10469795;28;20037;-90
2022/01/10 22:43:27;;;;;;;34.35;14.48;;;-1.50;99.90;;;;;;10466481;28;20518;-88
2022/01/10 22:48:28;;;;;;;32.60;13.53;;;-1.50;99.90;;;;;;10481913;28;20029;-89
2022/01/10 22:53:29;;;;;;;31.67;14.77;;;-1.40;99.90;;;;;;10461225;28;20024;-90
2022/01/10 22:58:30;;;;;;;33.67;15.50;;;-1.40;99.90;;;;;;10473860;28;20143;-89
2022/01/10 23:03:31;;;;;;;38.33;15.80;;;-1.40;99.90;;;;;;10457966;28;20029;-89
2022/01/10 23:08:32;;;;;;;42.53;18.80;;;-1.50;99.90;;;;;;10439375;28;20090;-89
2022/01/10 23:13:32;;;;;;;33.87;14.77;;;-1.40;99.90;;;;;;10477882;28;20033;-88
2022/01/10 23:18:34;;;;;;;26.37;12.27;;;-1.40;99.90;;;;;;10437311;28;20483;-88
2022/01/10 23:23:36;;;;;;;26.70;12.20;;;-1.50;99.90;;;;;;10456663;28;20037;-88
2022/01/10 23:28:38;;;;;;;28.00;11.93;;;-1.50;99.90;;;;;;10455316;28;20063;-88
2022/01/10 23:33:38;;;;;;;28.10;12.87;;;-1.50;99.90;;;;;;10475183;28;20035;-90
2022/01/10 23:38:39;;;;;;;35.90;14.77;;;-1.40;99.90;;;;;;10475654;28;20380;-89
2022/01/10 23:43:40;;;;;;;35.80;14.93;;;-1.40;99.90;;;;;;10475633;28;20029;-88
2022/01/10 23:48:41;;;;;;;29.87;13.40;;;-1.40;99.90;;;;;;10467551;28;20025;-88
2022/01/10 23:53:42;;;;;;;27.93;13.90;;;-1.40;99.90;;;;;;10480851;28;20037;-89
2022/01/10 23:58:43;;;;;;;32.33;13.60;;;-1.50;99.90;;;;;;10468750;28;20446;-91
